createdAt,value
2022-08-25T00:01:57.435Z,6.65
2022-08-25T00:04:26.283Z,6.35
2022-08-25T00:06:59.425Z,5.75
2022-08-25T00:09:31.717Z,2.88
2022-08-25T00:11:59.682Z,4.57
2022-08-25T00:14:31.396Z,3.75
2022-08-25T00:16:59.062Z,4.22
2022-08-25T00:19:29.902Z,3.90
2022-08-25T00:21:57.481Z,3.63
2022-08-25T00:24:25.582Z,4.43
2022-08-25T00:29:25.825Z,4.15
2022-08-25T00:31:55.009Z,3.33
2022-08-25T00:34:26.667Z,3.97
2022-08-25T00:36:54.920Z,5.03
2022-08-25T00:39:23.662Z,3.90
2022-08-25T00:41:55.798Z,3.95
2022-08-25T00:44:25.164Z,4.00
2022-08-25T00:46:56.225Z,3.55
2022-08-25T00:49:32.619Z,4.35
2022-08-25T00:52:05.037Z,4.72
2022-08-25T00:54:36.579Z,4.38
2022-08-25T00:57:07.379Z,3.70
2022-08-25T00:59:35.728Z,8.52
2022-08-25T01:02:05.592Z,4.70
2022-08-25T01:04:37.341Z,3.85
2022-08-25T01:07:05.955Z,5.90
2022-08-25T01:09:38.333Z,5.80
2022-08-25T01:12:06.232Z,4.43
2022-08-25T01:14:35.315Z,6.20
2022-08-25T01:17:03.273Z,4.90
2022-08-25T01:19:33.449Z,6.70
2022-08-25T01:22:01.346Z,4.28
2022-08-25T01:25:09.453Z,7.00
2022-08-25T01:27:36.956Z,6.43
2022-08-25T01:30:05.395Z,5.47
2022-08-25T01:32:34.854Z,5.70
2022-08-25T01:35:02.535Z,5.18
2022-08-25T01:37:35.211Z,5.50
2022-08-25T01:40:03.454Z,5.05
2022-08-25T01:43:00.225Z,3.90
2022-08-25T01:45:28.941Z,4.80
2022-08-25T01:47:56.866Z,5.22
2022-08-25T01:50:24.768Z,5.15
2022-08-25T01:53:29.154Z,6.53
2022-08-25T01:56:02.721Z,6.47
2022-08-25T01:58:35.095Z,5.68
2022-08-25T02:01:06.106Z,5.07
2022-08-25T02:03:38.134Z,7.55
2022-08-25T02:06:12.250Z,6.93
2022-08-25T02:08:41.003Z,4.72
2022-08-25T02:13:42.221Z,4.47
2022-08-25T02:16:15.099Z,4.97
2022-08-25T02:18:42.664Z,8.18
2022-08-25T02:21:11.335Z,4.57
2022-08-25T02:23:39.034Z,5.28
2022-08-25T02:26:06.594Z,7.90
2022-08-25T02:28:34.558Z,4.63
2022-08-25T02:31:02.633Z,4.82
2022-08-25T02:35:59.515Z,5.43
2022-08-25T02:38:29.020Z,5.18
2022-08-25T02:40:58.362Z,9.40
2022-08-25T02:43:27.410Z,6.00
2022-08-25T02:45:56.410Z,9.63
2022-08-25T02:48:24.435Z,11.40
2022-08-25T02:50:52.820Z,12.32
2022-08-25T02:53:21.968Z,11.90
2022-08-25T02:55:49.539Z,7.03
2022-08-25T02:58:17.013Z,7.68
2022-08-25T03:00:46.013Z,7.65
2022-08-25T03:03:14.133Z,7.68
2022-08-25T03:05:41.903Z,8.52
2022-08-25T03:08:09.993Z,9.93
2022-08-25T03:13:05.238Z,8.35
2022-08-25T03:15:33.966Z,13.70
2022-08-25T03:18:02.177Z,8.38
2022-08-25T03:20:31.476Z,10.32
2022-08-25T03:22:59.075Z,9.23
2022-08-25T03:25:45.151Z,9.13
2022-08-25T03:28:12.847Z,10.75
2022-08-25T03:30:41.034Z,9.57
2022-08-25T03:35:36.424Z,11.30
2022-08-25T03:38:04.730Z,11.80
2022-08-25T03:40:32.947Z,9.25
2022-08-25T03:45:28.360Z,8.45
2022-08-25T03:47:55.952Z,7.55
2022-08-25T03:50:23.915Z,9.18
2022-08-25T03:52:56.669Z,13.63
2022-08-25T03:55:25.472Z,12.60
2022-08-25T03:57:54.216Z,10.00
2022-08-25T04:00:23.342Z,11.23
2022-08-25T04:02:51.006Z,7.95
2022-08-25T04:05:20.283Z,8.30
2022-08-25T04:07:47.803Z,10.07
2022-08-25T04:10:15.670Z,8.57
2022-08-25T04:12:43.282Z,9.57
2022-08-25T04:15:11.258Z,8.02
2022-08-25T04:17:40.148Z,11.05
2022-08-25T04:20:10.569Z,7.28
2022-08-25T04:22:44.996Z,25.70
2022-08-25T04:25:13.539Z,27.67
2022-08-25T04:27:41.080Z,14.82
2022-08-25T04:30:09.882Z,20.00
2022-08-25T04:32:37.513Z,24.30
2022-08-25T04:35:05.551Z,20.77
2022-08-25T04:37:33.407Z,19.10
2022-08-25T04:40:01.338Z,23.70
2022-08-25T04:42:28.984Z,19.27
2022-08-25T04:44:56.555Z,19.00
2022-08-25T04:47:24.443Z,29.13
2022-08-25T04:49:51.970Z,66.65
2022-08-25T04:52:20.656Z,46.85
2022-08-25T04:54:48.446Z,51.67
2022-08-25T04:57:15.949Z,38.08
2022-08-25T04:59:43.494Z,45.42
2022-08-25T05:02:11.024Z,59.40
2022-08-25T05:04:38.615Z,58.45
2022-08-25T05:07:06.236Z,68.68
2022-08-25T05:09:33.979Z,67.80
2022-08-25T05:12:02.829Z,55.17
2022-08-25T05:14:32.228Z,82.70
2022-08-25T05:17:00.630Z,69.55
2022-08-25T05:19:28.527Z,93.03
2022-08-25T05:21:57.967Z,63.13
2022-08-25T05:24:26.656Z,71.68
2022-08-25T05:26:54.242Z,68.75
2022-08-25T05:29:21.865Z,86.90
2022-08-25T05:31:50.766Z,86.60
2022-08-25T05:34:19.552Z,51.60
2022-08-25T05:36:48.336Z,99.13
2022-08-25T05:39:16.363Z,42.47
2022-08-25T05:41:44.132Z,60.70
2022-08-25T05:44:12.762Z,65.13
2022-08-25T05:46:40.306Z,51.83
2022-08-25T05:49:10.607Z,36.38
2022-08-25T05:51:38.146Z,65.13
2022-08-25T05:54:06.177Z,55.00
2022-08-25T05:59:03.253Z,51.15
2022-08-25T06:01:52.432Z,67.18
2022-08-25T06:04:20.905Z,48.15
2022-08-25T06:06:48.980Z,75.80
2022-08-25T06:09:16.506Z,86.10
2022-08-25T06:11:44.823Z,91.25
2022-08-25T06:14:12.434Z,92.88
2022-08-25T06:16:40.412Z,74.90
2022-08-25T06:19:09.600Z,64.35
2022-08-25T06:21:39.689Z,116.05
2022-08-25T06:24:13.430Z,58.42
2022-08-25T06:26:44.108Z,72.65
2022-08-25T06:29:14.081Z,64.13
2022-08-25T06:31:42.932Z,85.57
2022-08-25T06:34:11.938Z,70.97
2022-08-25T06:36:39.983Z,79.60
2022-08-25T06:39:08.524Z,64.13
2022-08-25T06:41:38.742Z,81.20
2022-08-25T06:46:36.522Z,85.43
2022-08-25T06:49:06.591Z,86.80
2022-08-25T06:51:36.119Z,43.90
2022-08-25T06:54:06.360Z,50.75
2022-08-25T06:56:34.414Z,66.90
2022-08-25T07:01:32.034Z,79.80
2022-08-25T07:04:01.810Z,45.65
2022-08-25T07:06:31.742Z,38.70
2022-08-25T07:08:59.971Z,79.57
2022-08-25T07:11:28.399Z,79.63
2022-08-25T07:16:24.151Z,52.03
2022-08-25T07:18:59.072Z,72.75
2022-08-25T07:21:33.354Z,104.13
2022-08-25T07:24:03.364Z,97.18
2022-08-25T07:26:37.689Z,75.55
2022-08-25T07:29:10.575Z,62.80
2022-08-25T07:31:38.694Z,80.03
2022-08-25T07:34:26.162Z,65.13
2022-08-25T07:36:54.662Z,60.20
2022-08-25T07:39:23.463Z,71.22
2022-08-25T07:41:52.378Z,59.10
2022-08-25T07:44:22.348Z,70.60
2022-08-25T07:46:51.028Z,60.33
2022-08-25T07:49:23.557Z,48.65
2022-08-25T07:52:05.022Z,44.95
2022-08-25T07:54:37.771Z,57.38
2022-08-25T07:57:08.719Z,49.70
2022-08-25T07:59:41.140Z,46.17
2022-08-25T08:02:17.863Z,59.30
2022-08-25T08:04:51.144Z,50.60
2022-08-25T08:07:21.084Z,48.13
2022-08-25T08:10:00.369Z,69.32
2022-08-25T08:12:39.680Z,52.28
2022-08-25T08:17:39.568Z,31.23
2022-08-25T08:20:09.871Z,75.95
2022-08-25T08:22:41.125Z,40.65
2022-08-25T08:25:10.540Z,42.22
2022-08-25T08:27:39.529Z,35.30
2022-08-25T08:30:07.674Z,30.55
2022-08-25T08:37:53.802Z,31.70
2022-08-25T08:40:21.941Z,40.53
2022-08-25T08:43:04.165Z,28.88
2022-08-25T08:45:52.052Z,22.20
2022-08-25T08:48:58.654Z,48.05
2022-08-25T08:51:44.448Z,23.60
2022-08-25T08:54:20.407Z,31.83
2022-08-25T08:57:03.227Z,37.50
2022-08-25T08:59:41.794Z,45.72
2022-08-25T09:02:39.501Z,44.05
2022-08-25T09:05:12.324Z,75.80
2022-08-25T09:07:49.014Z,40.75
2022-08-25T09:10:24.827Z,20.35
2022-08-25T09:15:57.770Z,18.23
2022-08-25T09:18:41.215Z,24.75
2022-08-25T09:21:21.715Z,23.63
2022-08-25T09:24:26.730Z,19.88
2022-08-25T09:27:19.023Z,20.92
2022-08-25T09:30:01.898Z,17.08
2022-08-25T09:32:48.982Z,20.38
2022-08-25T09:35:26.602Z,14.35
2022-08-25T09:38:04.491Z,23.13
2022-08-25T09:43:35.081Z,14.30
2022-08-25T09:46:05.933Z,16.52
2022-08-25T09:48:52.545Z,13.15
2022-08-25T09:51:38.202Z,9.38
2022-08-25T09:54:16.120Z,14.18
2022-08-25T09:57:02.079Z,16.20
2022-08-25T09:59:38.755Z,29.02
2022-08-25T10:02:29.864Z,20.98
2022-08-25T10:04:59.892Z,17.65
2022-08-25T10:10:01.750Z,18.13
2022-08-25T10:12:43.146Z,16.45
2022-08-25T10:15:30.845Z,13.70
2022-08-25T10:18:25.734Z,15.40
2022-08-25T10:21:10.572Z,28.33
2022-08-25T10:23:48.942Z,10.38
2022-08-25T10:26:34.323Z,11.77
2022-08-25T10:29:08.952Z,8.30
2022-08-25T10:32:12.301Z,9.93
2022-08-25T10:34:52.620Z,12.43
2022-08-25T10:37:39.388Z,26.98
2022-08-25T10:40:24.161Z,23.95
2022-08-25T10:43:17.539Z,5.93
2022-08-25T10:46:07.881Z,9.13
2022-08-25T10:48:57.968Z,12.88
2022-08-25T10:51:43.630Z,8.68
2022-08-25T10:54:33.698Z,13.82
2022-08-25T10:57:25.713Z,11.70
2022-08-25T10:59:56.338Z,14.23
2022-08-25T11:02:45.655Z,9.23
2022-08-25T11:05:26.216Z,15.40
2022-08-25T11:08:29.619Z,7.95
2022-08-25T11:11:03.853Z,9.88
2022-08-25T11:13:46.119Z,9.05
2022-08-25T11:16:28.970Z,13.05
2022-08-25T11:19:06.965Z,9.98
2022-08-25T11:22:22.951Z,8.95
2022-08-25T11:25:23.008Z,7.75
2022-08-25T11:27:59.623Z,8.13
2022-08-25T11:30:30.905Z,9.07
2022-08-25T11:33:00.043Z,10.70
2022-08-25T11:35:41.181Z,7.68
2022-08-25T11:38:23.296Z,6.03
2022-08-25T11:41:14.033Z,6.45
2022-08-25T11:43:47.563Z,8.30
2022-08-25T11:46:43.906Z,4.95
2022-08-25T11:49:44.245Z,6.55
2022-08-25T11:52:31.911Z,4.47
2022-08-25T11:55:34.989Z,5.75
2022-08-25T11:58:37.210Z,5.13
2022-08-25T12:01:08.281Z,6.78
2022-08-25T12:03:37.397Z,4.75
2022-08-25T12:06:28.175Z,3.30
2022-08-25T12:09:05.787Z,3.22
2022-08-25T12:11:44.134Z,4.43
2022-08-25T12:14:42.081Z,4.70
2022-08-25T12:17:23.133Z,4.07
2022-08-25T12:19:55.656Z,5.18
2022-08-25T12:22:26.933Z,4.75
2022-08-25T12:25:11.696Z,4.78
2022-08-25T12:28:20.257Z,4.78
2022-08-25T12:31:01.301Z,5.45
2022-08-25T12:33:46.821Z,4.93
2022-08-25T12:36:31.455Z,4.43
2022-08-25T12:39:24.375Z,7.68
2022-08-25T12:41:57.023Z,5.78
2022-08-25T12:44:49.562Z,3.00
2022-08-25T12:47:32.396Z,4.70
2022-08-25T12:50:47.712Z,3.45
2022-08-25T12:53:42.792Z,4.47
2022-08-25T12:56:21.089Z,6.70
2022-08-25T12:59:01.531Z,3.45
2022-08-25T13:02:07.178Z,4.55
2022-08-25T13:04:44.056Z,4.82
2022-08-25T13:07:23.909Z,4.90
2022-08-25T13:10:20.732Z,2.70
2022-08-25T13:13:21.040Z,3.55
2022-08-25T13:16:07.911Z,2.85
2022-08-25T13:18:41.561Z,3.38
2022-08-25T13:21:16.398Z,4.22
2022-08-25T13:23:50.972Z,5.07
2022-08-25T13:26:25.887Z,6.72
2022-08-25T13:28:59.023Z,5.88
2022-08-25T13:31:29.628Z,5.47
2022-08-25T13:33:58.673Z,7.32
2022-08-25T13:36:54.028Z,6.93
2022-08-25T13:39:45.487Z,4.05
2022-08-25T13:42:16.604Z,2.88
2022-08-25T13:44:58.730Z,3.65
2022-08-25T13:47:43.351Z,5.28
2022-08-25T13:50:26.529Z,4.97
2022-08-25T13:53:22.472Z,5.70
2022-08-25T13:55:53.333Z,4.18
2022-08-25T13:58:38.608Z,2.00
2022-08-25T14:01:23.452Z,2.80
2022-08-25T14:04:32.526Z,2.53
2022-08-25T14:07:21.327Z,5.18
2022-08-25T14:09:58.433Z,4.70
2022-08-25T14:12:35.810Z,3.75
2022-08-25T14:15:23.782Z,4.93
2022-08-25T14:18:17.569Z,1.98
2022-08-25T14:20:50.775Z,3.20
2022-08-25T14:23:24.673Z,2.88
2022-08-25T14:25:53.866Z,5.50
2022-08-25T14:28:24.337Z,4.13
2022-08-25T14:31:05.147Z,3.28
2022-08-25T14:33:42.679Z,3.25
2022-08-25T14:36:10.752Z,4.38
2022-08-25T14:43:40.375Z,5.90
2022-08-25T14:46:25.141Z,3.67
2022-08-25T14:48:56.784Z,5.50
2022-08-25T14:51:26.136Z,4.20
2022-08-25T14:53:58.095Z,3.47
2022-08-25T14:56:25.883Z,3.47
2022-08-25T14:58:57.367Z,4.70
2022-08-25T15:01:30.196Z,3.25
2022-08-25T15:04:08.531Z,3.15
2022-08-25T15:06:36.998Z,3.03
2022-08-25T15:09:10.908Z,4.38
2022-08-25T15:12:00.531Z,6.78
2022-08-25T15:14:33.106Z,3.13
2022-08-25T15:17:02.542Z,3.15
2022-08-25T15:19:30.813Z,4.07
2022-08-25T15:21:59.495Z,6.15
2022-08-25T15:24:28.398Z,4.28
2022-08-25T15:26:59.473Z,2.22
2022-08-25T15:29:30.129Z,5.00
2022-08-25T15:32:00.091Z,4.28
2022-08-25T15:34:28.489Z,3.97
2022-08-25T15:36:58.355Z,3.78
2022-08-25T15:39:27.954Z,4.35
2022-08-25T15:41:57.171Z,3.17
2022-08-25T15:44:29.428Z,3.15
2022-08-25T15:46:59.340Z,4.20
2022-08-25T15:49:29.557Z,5.05
2022-08-25T15:51:59.089Z,8.15
2022-08-25T15:56:57.623Z,4.07
2022-08-25T15:59:25.984Z,3.70
2022-08-25T16:01:55.718Z,3.88
2022-08-25T16:04:29.659Z,5.90
2022-08-25T16:07:00.627Z,4.07
2022-08-25T16:09:28.979Z,4.63
2022-08-25T16:12:03.978Z,3.42
2022-08-25T16:14:34.303Z,3.83
2022-08-25T16:17:02.402Z,5.30
2022-08-25T16:19:33.544Z,3.75
2022-08-25T16:22:13.014Z,3.50
2022-08-25T16:24:45.854Z,9.20
2022-08-25T16:27:14.181Z,5.45
2022-08-25T16:29:45.797Z,5.63
2022-08-25T16:32:15.317Z,7.80
2022-08-25T16:34:44.364Z,5.60
2022-08-25T16:37:13.486Z,3.55
2022-08-25T16:39:44.225Z,3.13
2022-08-25T16:42:13.108Z,3.53
2022-08-25T16:44:41.162Z,6.30
2022-08-25T16:47:09.206Z,3.13
2022-08-25T16:49:37.114Z,3.78
2022-08-25T16:52:28.521Z,4.82
2022-08-25T16:55:16.165Z,4.28
2022-08-25T16:57:48.527Z,3.70
2022-08-25T17:00:21.981Z,5.38
2022-08-25T17:02:52.094Z,4.50
2022-08-25T17:05:19.980Z,5.57
2022-08-25T17:08:07.959Z,3.70
2022-08-25T17:10:38.605Z,4.32
2022-08-25T17:13:06.730Z,9.75
2022-08-25T17:18:02.353Z,10.73
2022-08-25T17:20:39.260Z,7.15
2022-08-25T17:23:12.738Z,8.57
2022-08-25T17:25:43.250Z,10.88
2022-08-25T17:28:12.827Z,8.00
2022-08-25T17:30:41.355Z,10.65
2022-08-25T17:33:09.329Z,12.13
2022-08-25T17:35:45.865Z,9.13
2022-08-25T17:38:33.270Z,8.32
2022-08-25T17:41:06.684Z,10.20
2022-08-25T17:43:37.716Z,13.18
2022-08-25T17:46:06.238Z,10.48
2022-08-25T17:48:35.351Z,13.25
2022-08-25T17:51:04.070Z,9.45
2022-08-25T17:53:32.019Z,13.02
2022-08-25T17:56:14.248Z,15.10
2022-08-25T17:58:42.534Z,11.13
2022-08-25T18:01:40.713Z,10.68
2022-08-25T18:04:17.023Z,13.63
2022-08-25T18:06:48.356Z,13.82
2022-08-25T18:09:17.475Z,16.30
2022-08-25T18:11:46.011Z,15.48
2022-08-25T18:14:16.528Z,13.85
2022-08-25T18:16:44.727Z,16.70
2022-08-25T18:21:43.472Z,16.50
2022-08-25T18:24:11.511Z,16.65
2022-08-25T18:26:41.139Z,16.58
2022-08-25T18:31:42.441Z,19.45
2022-08-25T18:34:11.566Z,17.75
2022-08-25T18:36:39.631Z,21.40
2022-08-25T18:39:26.637Z,16.88
2022-08-25T18:41:57.149Z,16.48
2022-08-25T18:44:24.683Z,19.33
2022-08-25T18:46:52.359Z,19.35
2022-08-25T18:49:21.897Z,19.45
2022-08-25T18:51:54.449Z,22.98
2022-08-25T18:54:23.525Z,23.90
2022-08-25T18:56:54.676Z,18.08
2022-08-25T18:59:24.108Z,21.83
2022-08-25T19:01:53.830Z,25.63
2022-08-25T19:04:28.574Z,20.30
2022-08-25T19:07:00.728Z,23.50
2022-08-25T19:09:29.094Z,22.35
2022-08-25T19:11:59.065Z,25.35
2022-08-25T19:14:27.657Z,24.30
2022-08-25T19:16:57.943Z,22.05
2022-08-25T19:19:25.973Z,21.38
2022-08-25T19:21:53.648Z,22.38
2022-08-25T19:24:21.533Z,19.35
2022-08-25T19:29:23.365Z,16.10
2022-08-25T19:31:51.619Z,18.40
2022-08-25T19:34:28.247Z,17.98
2022-08-25T19:37:00.099Z,17.58
2022-08-25T19:39:28.905Z,17.33
2022-08-25T19:41:58.504Z,15.00
2022-08-25T19:44:27.862Z,14.88
2022-08-25T19:46:56.399Z,15.50
2022-08-25T19:49:31.583Z,17.25
2022-08-25T19:52:02.539Z,14.88
2022-08-25T19:54:45.858Z,15.82
2022-08-25T19:57:27.840Z,12.98
2022-08-25T20:00:09.023Z,16.95
2022-08-25T20:02:41.107Z,17.23
2022-08-25T20:05:08.996Z,16.25
2022-08-25T20:07:37.081Z,15.48
2022-08-25T20:10:06.737Z,19.00
2022-08-25T20:12:35.545Z,19.65
2022-08-25T20:15:04.040Z,17.08
2022-08-25T20:17:32.003Z,20.13
2022-08-25T20:20:02.459Z,16.85
2022-08-25T20:22:33.482Z,19.73
2022-08-25T20:25:16.451Z,17.30
2022-08-25T20:27:48.720Z,21.50
2022-08-25T20:30:20.553Z,26.10
2022-08-25T20:32:49.272Z,21.75
2022-08-25T20:35:18.281Z,19.77
2022-08-25T20:37:47.035Z,22.17
2022-08-25T20:40:18.635Z,18.77
2022-08-25T20:42:54.997Z,19.10
2022-08-25T20:45:23.620Z,21.95
2022-08-25T20:47:51.467Z,20.85
2022-08-25T20:50:19.718Z,20.92
2022-08-25T20:52:48.532Z,21.40
2022-08-25T20:55:17.561Z,21.73
2022-08-25T20:57:46.758Z,20.05
2022-08-25T21:00:19.574Z,18.02
2022-08-25T21:02:51.495Z,20.33
2022-08-25T21:05:19.448Z,20.92
2022-08-25T21:07:47.356Z,22.20
2022-08-25T21:10:17.003Z,19.98
2022-08-25T21:12:45.228Z,21.35
2022-08-25T21:15:18.058Z,24.02
2022-08-25T21:17:50.680Z,19.50
2022-08-25T21:20:18.412Z,18.88
2022-08-25T21:22:46.110Z,17.85
2022-08-25T21:25:13.936Z,19.42
2022-08-25T21:27:41.459Z,18.42
2022-08-25T21:30:11.953Z,20.58
2022-08-25T21:32:39.570Z,20.70
2022-08-25T21:35:22.861Z,18.17
2022-08-25T21:37:52.992Z,18.42
2022-08-25T21:40:23.049Z,20.35
2022-08-25T21:42:52.012Z,16.38
2022-08-25T21:45:20.977Z,18.30
2022-08-25T21:47:49.808Z,22.40
2022-08-25T21:50:20.077Z,18.30
2022-08-25T21:52:47.838Z,19.63
2022-08-25T21:55:22.327Z,20.15
2022-08-25T21:57:50.316Z,17.58
2022-08-25T22:00:21.385Z,18.15
2022-08-25T22:02:51.267Z,18.50
2022-08-25T22:05:19.303Z,20.10
2022-08-25T22:07:47.814Z,22.33
2022-08-25T22:10:17.990Z,21.40
2022-08-25T22:12:47.327Z,26.08
2022-08-25T22:15:16.839Z,20.25
2022-08-25T22:17:48.095Z,22.73
2022-08-25T22:20:17.211Z,24.83
2022-08-25T22:22:44.872Z,24.23
2022-08-25T22:25:13.184Z,30.33
2022-08-25T22:27:40.755Z,27.25
2022-08-25T22:30:08.875Z,25.77
2022-08-25T22:37:32.443Z,24.63
2022-08-25T22:40:02.902Z,27.83
2022-08-25T22:42:31.451Z,26.77
2022-08-25T22:44:59.091Z,32.28
2022-08-25T22:47:26.852Z,28.67
2022-08-25T22:49:55.606Z,27.92
2022-08-25T22:52:31.949Z,31.33
2022-08-25T22:55:02.912Z,32.55
2022-08-25T22:57:30.903Z,31.50
2022-08-25T22:59:59.246Z,31.45
2022-08-25T23:02:27.676Z,32.88
2022-08-25T23:04:58.104Z,31.85
2022-08-25T23:07:29.643Z,33.17
2022-08-25T23:12:30.802Z,33.35
2022-08-25T23:14:58.371Z,36.25
2022-08-25T23:17:29.146Z,31.90
2022-08-25T23:19:56.691Z,39.53
2022-08-25T23:22:24.303Z,36.85
2022-08-25T23:24:54.812Z,34.40
2022-08-25T23:27:22.673Z,43.45
2022-08-25T23:29:50.299Z,35.33
2022-08-25T23:32:18.755Z,37.90
2022-08-25T23:34:47.153Z,36.63
2022-08-25T23:37:16.105Z,39.03
2022-08-25T23:39:47.308Z,38.72
2022-08-25T23:42:19.130Z,38.78
2022-08-25T23:44:47.924Z,40.22
2022-08-25T23:47:16.290Z,40.97
2022-08-25T23:49:43.908Z,37.92
2022-08-25T23:52:11.562Z,43.75
2022-08-25T23:54:39.363Z,37.58
2022-08-25T23:57:07.326Z,43.40
2022-08-25T23:59:38.262Z,45.75
